sensor_id;sensor_type;location;lat;lon;timestamp;temperature;humidity
39099;DHT22;24844;52.380;7.018;2024-03-22T00:01:15;11.20;99.90
39099;DHT22;24844;52.380;7.018;2024-03-22T00:03:41;11.20;99.90
39099;DHT22;24844;52.380;7.018;2024-03-22T00:06:06;11.40;99.90
39099;DHT22;24844;52.380;7.018;2024-03-22T00:08:32;11.40;99.90
39099;DHT22;24844;52.380;7.018;2024-03-22T00:10:57;11.30;99.90
39099;DHT22;24844;52.380;7.018;2024-03-22T00:13:23;11.30;99.90
39099;DHT22;24844;52.380;7.018;2024-03-22T00:15:48;11.60;99.90
39099;DHT22;24844;52.380;7.018;2024-03-22T00:18:14;11.30;99.90
39099;DHT22;24844;52.380;7.018;2024-03-22T00:20:39;11.30;99.90
39099;DHT22;24844;52.380;7.018;2024-03-22T00:23:05;11.50;99.90
39099;DHT22;24844;52.380;7.018;2024-03-22T00:25:31;11.30;99.90
39099;DHT22;24844;52.380;7.018;2024-03-22T00:27:57;11.40;99.90
39099;DHT22;24844;52.380;7.018;2024-03-22T00:30:23;11.60;99.90
39099;DHT22;24844;52.380;7.018;2024-03-22T00:32:48;11.50;99.90
39099;DHT22;24844;52.380;7.018;2024-03-22T00:35:14;11.40;99.90
39099;DHT22;24844;52.380;7.018;2024-03-22T00:37:39;11.50;99.90
39099;DHT22;24844;52.380;7.018;2024-03-22T00:40:05;11.60;99.90
39099;DHT22;24844;52.380;7.018;2024-03-22T00:42:31;11.60;99.90
39099;DHT22;24844;52.380;7.018;2024-03-22T00:44:57;11.60;99.90
39099;DHT22;24844;52.380;7.018;2024-03-22T00:47:23;11.50;99.90
39099;DHT22;24844;52.380;7.018;2024-03-22T00:49:49;11.60;99.90
39099;DHT22;24844;52.380;7.018;2024-03-22T00:52:15;11.60;99.90
39099;DHT22;24844;52.380;7.018;2024-03-22T00:54:40;11.70;99.90
39099;DHT22;24844;52.380;7.018;2024-03-22T00:57:06;11.80;99.90
39099;DHT22;24844;52.380;7.018;2024-03-22T00:59:32;11.70;99.90
39099;DHT22;24844;52.380;7.018;2024-03-22T01:01:58;11.70;99.90
39099;DHT22;24844;52.380;7.018;2024-03-22T01:04:23;11.60;99.90
39099;DHT22;24844;52.380;7.018;2024-03-22T01:06:49;11.70;99.90
39099;DHT22;24844;52.380;7.018;2024-03-22T01:09:14;11.90;99.90
39099;DHT22;24844;52.380;7.018;2024-03-22T01:11:40;11.90;99.90
39099;DHT22;24844;52.380;7.018;2024-03-22T01:14:05;11.90;99.90
39099;DHT22;24844;52.380;7.018;2024-03-22T01:16:31;12.00;99.90
39099;DHT22;24844;52.380;7.018;2024-03-22T01:18:56;12.20;99.90
39099;DHT22;24844;52.380;7.018;2024-03-22T01:21:22;11.90;99.90
39099;DHT22;24844;52.380;7.018;2024-03-22T01:23:52;11.90;99.90
39099;DHT22;24844;52.380;7.018;2024-03-22T01:26:17;12.00;99.90
39099;DHT22;24844;52.380;7.018;2024-03-22T01:28:43;12.00;99.90
39099;DHT22;24844;52.380;7.018;2024-03-22T01:31:08;11.90;99.90
39099;DHT22;24844;52.380;7.018;2024-03-22T01:33:34;11.80;99.90
39099;DHT22;24844;52.380;7.018;2024-03-22T01:35:59;12.00;99.90
39099;DHT22;24844;52.380;7.018;2024-03-22T01:38:25;11.90;99.90
39099;DHT22;24844;52.380;7.018;2024-03-22T01:40:51;11.70;99.90
39099;DHT22;24844;52.380;7.018;2024-03-22T01:43:16;11.80;99.90
39099;DHT22;24844;52.380;7.018;2024-03-22T01:45:42;11.80;99.90
39099;DHT22;24844;52.380;7.018;2024-03-22T01:48:07;11.70;99.90
39099;DHT22;24844;52.380;7.018;2024-03-22T01:50:33;11.60;99.90
39099;DHT22;24844;52.380;7.018;2024-03-22T01:52:59;11.90;99.90
39099;DHT22;24844;52.380;7.018;2024-03-22T01:55:25;11.90;99.90
39099;DHT22;24844;52.380;7.018;2024-03-22T01:57:51;12.00;99.90
39099;DHT22;24844;52.380;7.018;2024-03-22T02:00:19;11.90;99.90
39099;DHT22;24844;52.380;7.018;2024-03-22T02:02:44;11.80;99.90
39099;DHT22;24844;52.380;7.018;2024-03-22T02:05:17;11.80;99.90
39099;DHT22;24844;52.380;7.018;2024-03-22T02:07:47;11.80;99.90
39099;DHT22;24844;52.380;7.018;2024-03-22T02:10:14;11.80;99.90
39099;DHT22;24844;52.380;7.018;2024-03-22T02:12:40;11.80;99.90
39099;DHT22;24844;52.380;7.018;2024-03-22T02:15:06;11.80;99.90
39099;DHT22;24844;52.380;7.018;2024-03-22T02:17:32;11.80;99.90
39099;DHT22;24844;52.380;7.018;2024-03-22T02:19:59;11.80;99.90
39099;DHT22;24844;52.380;7.018;2024-03-22T02:22:26;11.90;99.90
39099;DHT22;24844;52.380;7.018;2024-03-22T02:24:52;11.80;99.90
39099;DHT22;24844;52.380;7.018;2024-03-22T02:27:17;11.70;99.90
39099;DHT22;24844;52.380;7.018;2024-03-22T02:29:43;11.60;99.90
39099;DHT22;24844;52.380;7.018;2024-03-22T02:32:09;11.70;99.90
39099;DHT22;24844;52.380;7.018;2024-03-22T02:34:35;11.80;99.90
39099;DHT22;24844;52.380;7.018;2024-03-22T02:37:00;12.00;99.90
39099;DHT22;24844;52.380;7.018;2024-03-22T02:39:26;12.20;99.90
39099;DHT22;24844;52.380;7.018;2024-03-22T02:41:51;12.20;99.90
39099;DHT22;24844;52.380;7.018;2024-03-22T02:44:17;12.10;99.90
39099;DHT22;24844;52.380;7.018;2024-03-22T02:46:42;12.00;99.90
39099;DHT22;24844;52.380;7.018;2024-03-22T02:49:08;12.10;99.90
39099;DHT22;24844;52.380;7.018;2024-03-22T02:51:33;11.90;99.90
39099;DHT22;24844;52.380;7.018;2024-03-22T02:53:59;12.10;99.90
39099;DHT22;24844;52.380;7.018;2024-03-22T02:56:24;12.10;99.90
39099;DHT22;24844;52.380;7.018;2024-03-22T02:58:50;12.20;99.90
39099;DHT22;24844;52.380;7.018;2024-03-22T03:01:15;12.10;99.90
39099;DHT22;24844;52.380;7.018;2024-03-22T03:03:41;12.20;99.90
39099;DHT22;24844;52.380;7.018;2024-03-22T03:06:06;12.10;99.90
39099;DHT22;24844;52.380;7.018;2024-03-22T03:08:32;12.10;99.90
39099;DHT22;24844;52.380;7.018;2024-03-22T03:10:57;12.30;99.90
39099;DHT22;24844;52.380;7.018;2024-03-22T03:13:23;12.30;99.90
39099;DHT22;24844;52.380;7.018;2024-03-22T03:15:49;12.30;99.90
39099;DHT22;24844;52.380;7.018;2024-03-22T03:18:14;12.20;99.90
39099;DHT22;24844;52.380;7.018;2024-03-22T03:20:40;12.30;99.90
39099;DHT22;24844;52.380;7.018;2024-03-22T03:23:05;12.30;99.90
39099;DHT22;24844;52.380;7.018;2024-03-22T03:25:31;12.30;99.90
39099;DHT22;24844;52.380;7.018;2024-03-22T03:27:57;12.20;99.90
39099;DHT22;24844;52.380;7.018;2024-03-22T03:30:22;12.20;99.90
39099;DHT22;24844;52.380;7.018;2024-03-22T03:32:48;12.20;99.90
39099;DHT22;24844;52.380;7.018;2024-03-22T03:35:13;12.10;99.90
39099;DHT22;24844;52.380;7.018;2024-03-22T03:37:39;12.10;99.90
39099;DHT22;24844;52.380;7.018;2024-03-22T03:40:05;12.00;99.90
39099;DHT22;24844;52.380;7.018;2024-03-22T03:42:31;12.20;99.90
39099;DHT22;24844;52.380;7.018;2024-03-22T03:44:56;12.20;99.90
39099;DHT22;24844;52.380;7.018;2024-03-22T03:47:22;12.30;99.90
39099;DHT22;24844;52.380;7.018;2024-03-22T03:49:47;12.30;99.90
39099;DHT22;24844;52.380;7.018;2024-03-22T03:52:13;12.30;99.90
39099;DHT22;24844;52.380;7.018;2024-03-22T03:54:39;12.50;99.90
39099;DHT22;24844;52.380;7.018;2024-03-22T03:57:04;12.50;99.90
39099;DHT22;24844;52.380;7.018;2024-03-22T03:59:30;12.40;99.90
39099;DHT22;24844;52.380;7.018;2024-03-22T04:01:56;12.10;99.90
39099;DHT22;24844;52.380;7.018;2024-03-22T04:04:21;12.40;99.90
39099;DHT22;24844;52.380;7.018;2024-03-22T04:06:47;12.30;99.90
39099;DHT22;24844;52.380;7.018;2024-03-22T04:09:12;12.20;99.90
39099;DHT22;24844;52.380;7.018;2024-03-22T04:11:38;12.20;99.90
39099;DHT22;24844;52.380;7.018;2024-03-22T04:14:04;12.30;99.90
39099;DHT22;24844;52.380;7.018;2024-03-22T04:16:30;12.30;99.90
39099;DHT22;24844;52.380;7.018;2024-03-22T04:18:56;12.40;99.90
39099;DHT22;24844;52.380;7.018;2024-03-22T04:21:22;12.50;99.90
39099;DHT22;24844;52.380;7.018;2024-03-22T04:23:47;12.40;99.90
39099;DHT22;24844;52.380;7.018;2024-03-22T04:26:13;12.50;99.90
39099;DHT22;24844;52.380;7.018;2024-03-22T04:28:38;12.60;99.90
39099;DHT22;24844;52.380;7.018;2024-03-22T04:31:06;12.80;99.90
39099;DHT22;24844;52.380;7.018;2024-03-22T04:33:32;12.80;99.90
39099;DHT22;24844;52.380;7.018;2024-03-22T04:35:59;12.70;99.90
39099;DHT22;24844;52.380;7.018;2024-03-22T04:38:26;12.60;99.90
39099;DHT22;24844;52.380;7.018;2024-03-22T04:40:52;12.60;99.90
39099;DHT22;24844;52.380;7.018;2024-03-22T04:43:18;12.60;99.90
39099;DHT22;24844;52.380;7.018;2024-03-22T04:45:44;12.80;99.90
39099;DHT22;24844;52.380;7.018;2024-03-22T04:48:19;12.70;99.90
39099;DHT22;24844;52.380;7.018;2024-03-22T04:50:46;12.80;99.90
39099;DHT22;24844;52.380;7.018;2024-03-22T04:53:13;12.60;99.90
39099;DHT22;24844;52.380;7.018;2024-03-22T04:55:38;12.70;99.90
39099;DHT22;24844;52.380;7.018;2024-03-22T04:58:04;12.70;99.90
39099;DHT22;24844;52.380;7.018;2024-03-22T05:00:30;12.80;99.90
39099;DHT22;24844;52.380;7.018;2024-03-22T05:02:55;12.70;99.90
39099;DHT22;24844;52.380;7.018;2024-03-22T05:05:21;12.70;99.90
39099;DHT22;24844;52.380;7.018;2024-03-22T05:07:47;12.60;99.90
39099;DHT22;24844;52.380;7.018;2024-03-22T05:10:12;12.80;99.90
39099;DHT22;24844;52.380;7.018;2024-03-22T05:12:38;12.80;99.90
39099;DHT22;24844;52.380;7.018;2024-03-22T05:15:05;12.90;99.90
39099;DHT22;24844;52.380;7.018;2024-03-22T05:17:31;12.70;99.90
39099;DHT22;24844;52.380;7.018;2024-03-22T05:19:58;12.50;99.90
39099;DHT22;24844;52.380;7.018;2024-03-22T05:22:23;12.80;99.90
39099;DHT22;24844;52.380;7.018;2024-03-22T05:24:49;13.00;99.90
39099;DHT22;24844;52.380;7.018;2024-03-22T05:27:14;12.80;99.90
39099;DHT22;24844;52.380;7.018;2024-03-22T05:29:40;12.90;99.90
39099;DHT22;24844;52.380;7.018;2024-03-22T05:32:06;13.10;99.90
39099;DHT22;24844;52.380;7.018;2024-03-22T05:34:31;13.00;99.90
39099;DHT22;24844;52.380;7.018;2024-03-22T05:36:57;12.90;99.90
39099;DHT22;24844;52.380;7.018;2024-03-22T05:39:22;13.00;99.90
39099;DHT22;24844;52.380;7.018;2024-03-22T05:41:48;13.10;99.90
39099;DHT22;24844;52.380;7.018;2024-03-22T05:44:13;12.90;99.90
39099;DHT22;24844;52.380;7.018;2024-03-22T05:46:39;13.10;99.90
39099;DHT22;24844;52.380;7.018;2024-03-22T05:49:04;13.20;99.90
39099;DHT22;24844;52.380;7.018;2024-03-22T05:51:30;12.90;99.90
39099;DHT22;24844;52.380;7.018;2024-03-22T05:53:56;13.20;99.90
39099;DHT22;24844;52.380;7.018;2024-03-22T05:56:22;13.20;99.90
39099;DHT22;24844;52.380;7.018;2024-03-22T05:58:48;13.10;99.90
39099;DHT22;24844;52.380;7.018;2024-03-22T06:01:13;13.00;99.90
39099;DHT22;24844;52.380;7.018;2024-03-22T06:03:39;13.20;99.90
39099;DHT22;24844;52.380;7.018;2024-03-22T06:06:05;13.20;99.90
39099;DHT22;24844;52.380;7.018;2024-03-22T06:08:30;13.00;99.90
39099;DHT22;24844;52.380;7.018;2024-03-22T06:11:00;13.00;99.90
39099;DHT22;24844;52.380;7.018;2024-03-22T06:13:26;12.90;99.90
39099;DHT22;24844;52.380;7.018;2024-03-22T06:15:51;12.90;99.90
39099;DHT22;24844;52.380;7.018;2024-03-22T06:18:17;12.90;99.90
39099;DHT22;24844;52.380;7.018;2024-03-22T06:20:43;12.80;99.90
39099;DHT22;24844;52.380;7.018;2024-03-22T06:23:09;12.90;99.90
39099;DHT22;24844;52.380;7.018;2024-03-22T06:25:34;13.00;99.90
39099;DHT22;24844;52.380;7.018;2024-03-22T06:28:00;13.10;99.90
39099;DHT22;24844;52.380;7.018;2024-03-22T06:30:25;13.20;99.90
39099;DHT22;24844;52.380;7.018;2024-03-22T06:32:52;13.30;99.90
39099;DHT22;24844;52.380;7.018;2024-03-22T06:35:18;13.10;99.90
39099;DHT22;24844;52.380;7.018;2024-03-22T06:37:44;13.10;99.90
39099;DHT22;24844;52.380;7.018;2024-03-22T06:40:10;13.20;99.90
39099;DHT22;24844;52.380;7.018;2024-03-22T06:42:35;13.10;99.90
39099;DHT22;24844;52.380;7.018;2024-03-22T06:45:02;13.20;99.90
39099;DHT22;24844;52.380;7.018;2024-03-22T06:47:28;13.00;99.90
39099;DHT22;24844;52.380;7.018;2024-03-22T06:49:53;13.00;99.90
39099;DHT22;24844;52.380;7.018;2024-03-22T06:52:20;12.90;99.90
39099;DHT22;24844;52.380;7.018;2024-03-22T06:54:46;13.20;99.90
39099;DHT22;24844;52.380;7.018;2024-03-22T06:57:12;13.10;99.90
39099;DHT22;24844;52.380;7.018;2024-03-22T06:59:37;13.30;99.90
39099;DHT22;24844;52.380;7.018;2024-03-22T07:02:04;13.30;99.90
39099;DHT22;24844;52.380;7.018;2024-03-22T07:04:29;13.40;99.90
39099;DHT22;24844;52.380;7.018;2024-03-22T07:06:55;13.30;99.90
39099;DHT22;24844;52.380;7.018;2024-03-22T07:09:20;13.30;99.90
39099;DHT22;24844;52.380;7.018;2024-03-22T07:11:46;13.50;99.90
39099;DHT22;24844;52.380;7.018;2024-03-22T07:14:12;13.50;99.90
39099;DHT22;24844;52.380;7.018;2024-03-22T07:16:37;13.60;99.90
39099;DHT22;24844;52.380;7.018;2024-03-22T07:19:03;13.50;99.90
39099;DHT22;24844;52.380;7.018;2024-03-22T07:21:29;13.50;99.90
39099;DHT22;24844;52.380;7.018;2024-03-22T07:23:56;13.70;99.90
39099;DHT22;24844;52.380;7.018;2024-03-22T07:26:21;13.80;99.90
39099;DHT22;24844;52.380;7.018;2024-03-22T07:28:47;13.80;99.90
39099;DHT22;24844;52.380;7.018;2024-03-22T07:31:13;13.90;99.90
39099;DHT22;24844;52.380;7.018;2024-03-22T07:33:39;13.70;99.90
39099;DHT22;24844;52.380;7.018;2024-03-22T07:36:05;13.80;99.90
39099;DHT22;24844;52.380;7.018;2024-03-22T07:38:31;13.70;99.90
39099;DHT22;24844;52.380;7.018;2024-03-22T07:40:57;13.70;99.90
39099;DHT22;24844;52.380;7.018;2024-03-22T07:43:22;13.50;99.90
39099;DHT22;24844;52.380;7.018;2024-03-22T07:45:48;13.50;99.90
39099;DHT22;24844;52.380;7.018;2024-03-22T07:48:14;13.50;99.90
39099;DHT22;24844;52.380;7.018;2024-03-22T07:50:39;13.50;99.90
39099;DHT22;24844;52.380;7.018;2024-03-22T07:53:05;13.60;99.90
39099;DHT22;24844;52.380;7.018;2024-03-22T07:55:30;13.40;99.90
39099;DHT22;24844;52.380;7.018;2024-03-22T07:57:56;13.80;99.90
39099;DHT22;24844;52.380;7.018;2024-03-22T08:00:23;13.80;99.90
39099;DHT22;24844;52.380;7.018;2024-03-22T08:02:51;13.80;99.90
39099;DHT22;24844;52.380;7.018;2024-03-22T08:05:16;13.50;99.90
39099;DHT22;24844;52.380;7.018;2024-03-22T08:07:42;13.60;99.90
39099;DHT22;24844;52.380;7.018;2024-03-22T08:10:09;13.80;99.90
39099;DHT22;24844;52.380;7.018;2024-03-22T08:12:34;13.70;99.90
39099;DHT22;24844;52.380;7.018;2024-03-22T08:15:00;13.80;99.90
39099;DHT22;24844;52.380;7.018;2024-03-22T08:17:25;14.00;99.90
39099;DHT22;24844;52.380;7.018;2024-03-22T08:19:51;13.80;99.90
39099;DHT22;24844;52.380;7.018;2024-03-22T08:22:17;13.60;99.90
39099;DHT22;24844;52.380;7.018;2024-03-22T08:24:42;13.60;99.90
39099;DHT22;24844;52.380;7.018;2024-03-22T08:27:08;13.80;99.90
39099;DHT22;24844;52.380;7.018;2024-03-22T08:29:33;14.10;99.90
39099;DHT22;24844;52.380;7.018;2024-03-22T08:31:59;14.20;99.90
39099;DHT22;24844;52.380;7.018;2024-03-22T08:34:24;14.20;99.90
39099;DHT22;24844;52.380;7.018;2024-03-22T08:36:50;14.50;99.90
39099;DHT22;24844;52.380;7.018;2024-03-22T08:39:15;14.50;99.90
39099;DHT22;24844;52.380;7.018;2024-03-22T08:41:41;14.50;99.90
39099;DHT22;24844;52.380;7.018;2024-03-22T08:44:06;14.40;99.90
39099;DHT22;24844;52.380;7.018;2024-03-22T08:46:32;14.40;99.90
39099;DHT22;24844;52.380;7.018;2024-03-22T08:48:58;14.00;99.90
39099;DHT22;24844;52.380;7.018;2024-03-22T08:51:24;14.00;99.90
39099;DHT22;24844;52.380;7.018;2024-03-22T08:53:50;14.10;99.90
39099;DHT22;24844;52.380;7.018;2024-03-22T08:56:15;14.10;99.90
39099;DHT22;24844;52.380;7.018;2024-03-22T08:58:41;14.00;99.90
39099;DHT22;24844;52.380;7.018;2024-03-22T09:01:07;13.70;99.90
39099;DHT22;24844;52.380;7.018;2024-03-22T09:03:36;14.00;99.90
39099;DHT22;24844;52.380;7.018;2024-03-22T09:06:01;13.90;99.90
39099;DHT22;24844;52.380;7.018;2024-03-22T09:08:28;14.00;99.90
39099;DHT22;24844;52.380;7.018;2024-03-22T09:10:54;14.00;99.90
39099;DHT22;24844;52.380;7.018;2024-03-22T09:13:20;14.00;99.90
39099;DHT22;24844;52.380;7.018;2024-03-22T09:15:45;14.20;99.90
39099;DHT22;24844;52.380;7.018;2024-03-22T09:18:11;14.10;99.90
39099;DHT22;24844;52.380;7.018;2024-03-22T09:20:36;14.00;99.90
39099;DHT22;24844;52.380;7.018;2024-03-22T09:23:02;14.10;99.90
39099;DHT22;24844;52.380;7.018;2024-03-22T09:25:29;14.00;99.90
39099;DHT22;24844;52.380;7.018;2024-03-22T09:27:54;13.80;99.90
39099;DHT22;24844;52.380;7.018;2024-03-22T09:30:20;14.10;99.90
39099;DHT22;24844;52.380;7.018;2024-03-22T09:32:47;14.00;99.90
39099;DHT22;24844;52.380;7.018;2024-03-22T09:35:12;13.90;99.90
39099;DHT22;24844;52.380;7.018;2024-03-22T09:37:43;14.00;99.90
39099;DHT22;24844;52.380;7.018;2024-03-22T09:40:09;14.20;99.90
39099;DHT22;24844;52.380;7.018;2024-03-22T09:42:38;13.80;99.90
39099;DHT22;24844;52.380;7.018;2024-03-22T09:45:08;14.00;99.90
39099;DHT22;24844;52.380;7.018;2024-03-22T09:47:36;13.70;99.90
39099;DHT22;24844;52.380;7.018;2024-03-22T09:50:06;13.70;99.90
39099;DHT22;24844;52.380;7.018;2024-03-22T09:52:33;13.70;99.90
39099;DHT22;24844;52.380;7.018;2024-03-22T09:54:59;13.60;99.90
39099;DHT22;24844;52.380;7.018;2024-03-22T09:57:25;13.70;99.90
39099;DHT22;24844;52.380;7.018;2024-03-22T09:59:51;13.80;99.90
39099;DHT22;24844;52.380;7.018;2024-03-22T10:02:17;13.70;99.90
39099;DHT22;24844;52.380;7.018;2024-03-22T10:04:43;13.50;99.90
39099;DHT22;24844;52.380;7.018;2024-03-22T10:07:09;13.50;99.90
39099;DHT22;24844;52.380;7.018;2024-03-22T10:09:35;13.40;99.90
39099;DHT22;24844;52.380;7.018;2024-03-22T10:12:01;13.40;99.90
39099;DHT22;24844;52.380;7.018;2024-03-22T10:14:28;13.30;99.90
39099;DHT22;24844;52.380;7.018;2024-03-22T10:16:55;13.20;99.90
39099;DHT22;24844;52.380;7.018;2024-03-22T10:19:21;12.90;99.90
39099;DHT22;24844;52.380;7.018;2024-03-22T10:22:15;13.10;99.90
39099;DHT22;24844;52.380;7.018;2024-03-22T10:24:41;13.20;99.90
39099;DHT22;24844;52.380;7.018;2024-03-22T10:27:08;13.00;99.90
39099;DHT22;24844;52.380;7.018;2024-03-22T10:29:37;13.00;99.90
39099;DHT22;24844;52.380;7.018;2024-03-22T10:32:03;13.20;99.90
39099;DHT22;24844;52.380;7.018;2024-03-22T10:34:29;12.90;99.90
39099;DHT22;24844;52.380;7.018;2024-03-22T10:37:00;13.00;99.90
39099;DHT22;24844;52.380;7.018;2024-03-22T10:39:26;13.00;99.90
39099;DHT22;24844;52.380;7.018;2024-03-22T10:41:52;12.90;99.90
39099;DHT22;24844;52.380;7.018;2024-03-22T10:44:18;12.70;99.90
39099;DHT22;24844;52.380;7.018;2024-03-22T10:46:45;12.70;99.90
39099;DHT22;24844;52.380;7.018;2024-03-22T10:49:16;13.00;99.90
39099;DHT22;24844;52.380;7.018;2024-03-22T10:51:54;12.80;99.90
39099;DHT22;24844;52.380;7.018;2024-03-22T10:54:25;12.90;99.90
39099;DHT22;24844;52.380;7.018;2024-03-22T10:56:51;12.80;99.90
39099;DHT22;24844;52.380;7.018;2024-03-22T10:59:23;12.80;99.90
39099;DHT22;24844;52.380;7.018;2024-03-22T11:01:49;12.80;99.90
39099;DHT22;24844;52.380;7.018;2024-03-22T11:04:17;12.80;99.90
39099;DHT22;24844;52.380;7.018;2024-03-22T11:06:48;12.60;99.90
39099;DHT22;24844;52.380;7.018;2024-03-22T11:09:21;12.60;99.90
39099;DHT22;24844;52.380;7.018;2024-03-22T11:11:48;12.60;99.90
39099;DHT22;24844;52.380;7.018;2024-03-22T11:14:14;12.80;99.90
39099;DHT22;24844;52.380;7.018;2024-03-22T11:16:45;12.70;99.90
39099;DHT22;24844;52.380;7.018;2024-03-22T11:19:11;12.80;99.90
39099;DHT22;24844;52.380;7.018;2024-03-22T11:21:37;12.90;99.90
39099;DHT22;24844;52.380;7.018;2024-03-22T11:24:04;12.80;99.90
39099;DHT22;24844;52.380;7.018;2024-03-22T11:26:30;13.10;99.90
39099;DHT22;24844;52.380;7.018;2024-03-22T11:28:55;12.90;99.90
39099;DHT22;24844;52.380;7.018;2024-03-22T11:31:22;12.80;99.90
39099;DHT22;24844;52.380;7.018;2024-03-22T11:33:56;12.80;99.90
39099;DHT22;24844;52.380;7.018;2024-03-22T11:36:22;12.70;99.90
39099;DHT22;24844;52.380;7.018;2024-03-22T11:38:48;12.80;99.90
39099;DHT22;24844;52.380;7.018;2024-03-22T11:41:28;12.90;99.90
39099;DHT22;24844;52.380;7.018;2024-03-22T11:43:55;13.20;99.90
39099;DHT22;24844;52.380;7.018;2024-03-22T11:46:23;13.10;99.90
39099;DHT22;24844;52.380;7.018;2024-03-22T11:48:53;13.00;99.90
39099;DHT22;24844;52.380;7.018;2024-03-22T11:51:19;12.80;99.90
39099;DHT22;24844;52.380;7.018;2024-03-22T11:53:51;12.90;99.90
39099;DHT22;24844;52.380;7.018;2024-03-22T11:56:19;12.80;99.90
39099;DHT22;24844;52.380;7.018;2024-03-22T11:58:47;12.90;99.90
39099;DHT22;24844;52.380;7.018;2024-03-22T12:01:17;13.00;99.90
39099;DHT22;24844;52.380;7.018;2024-03-22T12:03:48;12.90;99.90
39099;DHT22;24844;52.380;7.018;2024-03-22T12:06:15;12.70;99.90
39099;DHT22;24844;52.380;7.018;2024-03-22T12:08:41;12.80;99.90
39099;DHT22;24844;52.380;7.018;2024-03-22T12:11:07;12.80;99.90
39099;DHT22;24844;52.380;7.018;2024-03-22T12:13:33;12.80;99.90
39099;DHT22;24844;52.380;7.018;2024-03-22T12:15:59;12.90;99.90
39099;DHT22;24844;52.380;7.018;2024-03-22T12:18:24;12.90;99.90
39099;DHT22;24844;52.380;7.018;2024-03-22T12:20:50;13.30;99.90
39099;DHT22;24844;52.380;7.018;2024-03-22T12:23:15;13.00;99.90
39099;DHT22;24844;52.380;7.018;2024-03-22T12:25:41;13.10;99.90
39099;DHT22;24844;52.380;7.018;2024-03-22T12:28:06;12.90;99.90
39099;DHT22;24844;52.380;7.018;2024-03-22T12:30:32;13.10;99.90
39099;DHT22;24844;52.380;7.018;2024-03-22T12:32:58;13.00;99.90
39099;DHT22;24844;52.380;7.018;2024-03-22T12:35:24;13.00;99.90
39099;DHT22;24844;52.380;7.018;2024-03-22T12:37:51;12.90;99.90
39099;DHT22;24844;52.380;7.018;2024-03-22T12:40:16;12.90;99.90
39099;DHT22;24844;52.380;7.018;2024-03-22T12:42:42;13.20;99.90
39099;DHT22;24844;52.380;7.018;2024-03-22T12:45:08;13.10;99.90
39099;DHT22;24844;52.380;7.018;2024-03-22T12:47:34;13.10;99.90
39099;DHT22;24844;52.380;7.018;2024-03-22T12:49:59;13.10;99.90
39099;DHT22;24844;52.380;7.018;2024-03-22T12:52:25;13.10;99.90
39099;DHT22;24844;52.380;7.018;2024-03-22T12:54:51;13.10;99.90
39099;DHT22;24844;52.380;7.018;2024-03-22T12:57:16;12.90;99.90
39099;DHT22;24844;52.380;7.018;2024-03-22T12:59:42;13.00;99.90
39099;DHT22;24844;52.380;7.018;2024-03-22T13:02:08;13.10;99.90
39099;DHT22;24844;52.380;7.018;2024-03-22T13:04:33;13.10;99.90
39099;DHT22;24844;52.380;7.018;2024-03-22T13:06:59;13.00;99.90
39099;DHT22;24844;52.380;7.018;2024-03-22T13:09:24;13.10;99.90
39099;DHT22;24844;52.380;7.018;2024-03-22T13:11:50;13.10;99.90
39099;DHT22;24844;52.380;7.018;2024-03-22T13:14:15;13.00;99.90
39099;DHT22;24844;52.380;7.018;2024-03-22T13:16:41;13.00;99.90
39099;DHT22;24844;52.380;7.018;2024-03-22T13:19:07;13.10;99.90
39099;DHT22;24844;52.380;7.018;2024-03-22T13:21:38;13.20;99.90
39099;DHT22;24844;52.380;7.018;2024-03-22T13:24:03;12.90;99.90
39099;DHT22;24844;52.380;7.018;2024-03-22T13:26:29;12.90;99.90
39099;DHT22;24844;52.380;7.018;2024-03-22T13:28:54;12.90;99.90
39099;DHT22;24844;52.380;7.018;2024-03-22T13:31:20;13.00;99.90
39099;DHT22;24844;52.380;7.018;2024-03-22T13:33:45;12.90;99.90
39099;DHT22;24844;52.380;7.018;2024-03-22T13:36:12;12.70;99.90
39099;DHT22;24844;52.380;7.018;2024-03-22T13:38:38;12.80;99.90
39099;DHT22;24844;52.380;7.018;2024-03-22T13:41:03;12.60;99.90
39099;DHT22;24844;52.380;7.018;2024-03-22T13:43:31;12.60;99.90
39099;DHT22;24844;52.380;7.018;2024-03-22T13:45:57;12.40;99.90
39099;DHT22;24844;52.380;7.018;2024-03-22T13:48:23;12.30;99.90
39099;DHT22;24844;52.380;7.018;2024-03-22T13:50:53;12.30;99.90
39099;DHT22;24844;52.380;7.018;2024-03-22T13:53:19;12.20;99.90
39099;DHT22;24844;52.380;7.018;2024-03-22T13:55:47;12.20;99.90
39099;DHT22;24844;52.380;7.018;2024-03-22T13:58:13;12.10;99.90
39099;DHT22;24844;52.380;7.018;2024-03-22T14:00:39;12.20;99.90
39099;DHT22;24844;52.380;7.018;2024-03-22T14:03:04;12.20;99.90
39099;DHT22;24844;52.380;7.018;2024-03-22T14:05:31;12.10;99.90
39099;DHT22;24844;52.380;7.018;2024-03-22T14:07:57;12.20;99.90
39099;DHT22;24844;52.380;7.018;2024-03-22T14:10:23;12.30;99.90
39099;DHT22;24844;52.380;7.018;2024-03-22T14:12:50;12.50;99.90
39099;DHT22;24844;52.380;7.018;2024-03-22T14:15:16;12.50;99.90
39099;DHT22;24844;52.380;7.018;2024-03-22T14:17:41;12.40;99.90
39099;DHT22;24844;52.380;7.018;2024-03-22T14:20:07;12.40;99.90
39099;DHT22;24844;52.380;7.018;2024-03-22T14:22:40;12.50;99.90
39099;DHT22;24844;52.380;7.018;2024-03-22T14:25:07;12.50;99.90
39099;DHT22;24844;52.380;7.018;2024-03-22T14:27:36;12.60;99.90
39099;DHT22;24844;52.380;7.018;2024-03-22T14:30:03;12.50;99.90
39099;DHT22;24844;52.380;7.018;2024-03-22T14:32:31;12.50;99.90
39099;DHT22;24844;52.380;7.018;2024-03-22T14:34:57;12.50;99.90
39099;DHT22;24844;52.380;7.018;2024-03-22T14:37:23;12.40;99.90
39099;DHT22;24844;52.380;7.018;2024-03-22T14:39:48;12.40;99.90
39099;DHT22;24844;52.380;7.018;2024-03-22T14:42:14;12.40;99.90
39099;DHT22;24844;52.380;7.018;2024-03-22T14:44:39;12.50;99.90
39099;DHT22;24844;52.380;7.018;2024-03-22T14:47:05;12.40;99.90
39099;DHT22;24844;52.380;7.018;2024-03-22T14:49:31;12.20;99.90
39099;DHT22;24844;52.380;7.018;2024-03-22T14:51:57;12.40;99.90
39099;DHT22;24844;52.380;7.018;2024-03-22T14:54:23;12.40;99.90
39099;DHT22;24844;52.380;7.018;2024-03-22T14:56:48;12.50;99.90
39099;DHT22;24844;52.380;7.018;2024-03-22T14:59:14;12.80;99.90
39099;DHT22;24844;52.380;7.018;2024-03-22T15:01:40;12.70;99.90
39099;DHT22;24844;52.380;7.018;2024-03-22T15:04:05;12.20;99.90
39099;DHT22;24844;52.380;7.018;2024-03-22T15:06:32;11.70;99.90
39099;DHT22;24844;52.380;7.018;2024-03-22T15:08:57;11.30;99.90
39099;DHT22;24844;52.380;7.018;2024-03-22T15:11:24;11.10;99.90
39099;DHT22;24844;52.380;7.018;2024-03-22T15:13:49;11.10;99.90
39099;DHT22;24844;52.380;7.018;2024-03-22T15:16:15;10.80;99.90
39099;DHT22;24844;52.380;7.018;2024-03-22T15:18:41;10.60;99.90
39099;DHT22;24844;52.380;7.018;2024-03-22T15:21:09;10.60;99.90
39099;DHT22;24844;52.380;7.018;2024-03-22T15:23:35;10.60;99.90